APL Indonesia — V2EC7 — position and weather

sailwx.info

Track history (hours):
 
Tides and Currents Weather Stations Pressure Air Temp Water Temp Dewpoint Dewpoint Depression Visibility Wind Speed Wind Dir Waves Ship Positions

APL Indonesia

Last reported at 2014-Nov-13 10:24 UTC. Time now 2014-Nov-26 04:10 UTC.
Position S 32°36' W 071°45'.
Warning: this ship's position is 12 days out of date.

Length 261 m; draft 7.9 m.

Type: Ship (hazmat cat D). MMSI: 305386000.

Date/timePositionNaut miles runAvg speedWind from/ knotsBaromVisibWave heightAir tempDewpointWater temp
2014-Nov-13 10:24S 32°36' W 071°45'1518.0
2014-Nov-13 09:34S 32°50' W 071°39'11 1.1
2014-Nov-12 23:32S 33°02' W 071°38'0 0.0
2014-Nov-12 22:32S 33°02' W 071°38'0 0.0
2014-Nov-12 21:32S 33°02' W 071°38'0 0.0
2014-Nov-12 20:32S 33°02' W 071°38'0 0.0
2014-Nov-12 19:32S 33°02' W 071°38'0 0.0
2014-Nov-12 18:32S 33°02' W 071°38'0 0.0
2014-Nov-12 17:32S 33°02' W 071°38'0 0.0
2014-Nov-12 16:32S 33°02' W 071°38'2 2.0
2014-Nov-12 15:33S 33°01' W 071°36'1 0.7
2014-Nov-12 14:31S 33°00' W 071°35'0 0.0
2014-Nov-12 12:31S 33°00' W 071°35'0 0.0
2014-Nov-12 11:28S 32°60' W 071°35'0 0.0
2014-Nov-12 10:25S 32°60' W 071°35'5 2.7
2014-Nov-12 08:33S 32°55' W 071°37'1615.4
2014-Nov-12 07:32S 32°40' W 071°44'  
Track history (hours):
 
Tides and Currents Weather Stations Pressure Air Temp Water Temp Dewpoint Dewpoint Depression Visibility Wind Speed Wind Dir Waves Ship Positions

APL Indonesia

Last reported at 2014-Nov-13 10:24 UTC. Time now 2014-Nov-26 04:10 UTC.
Position S 32°36' W 071°45'.
Warning: this ship's position is 12 days out of date.

Length 261 m; draft 7.9 m.

Type: Ship (hazmat cat D). MMSI: 305386000.

Date/timePositionNaut miles runAvg speedWind from/ knotsBaromVisibWave heightAir tempDewpointWater temp
2014-Nov-13 10:24S 32°36' W 071°45'1518.0
2014-Nov-13 09:34S 32°50' W 071°39'11 1.1
2014-Nov-12 23:32S 33°02' W 071°38'0 0.0
2014-Nov-12 22:32S 33°02' W 071°38'0 0.0
2014-Nov-12 21:32S 33°02' W 071°38'0 0.0
2014-Nov-12 20:32S 33°02' W 071°38'0 0.0
2014-Nov-12 19:32S 33°02' W 071°38'0 0.0
2014-Nov-12 18:32S 33°02' W 071°38'0 0.0
2014-Nov-12 17:32S 33°02' W 071°38'0 0.0
2014-Nov-12 16:32S 33°02' W 071°38'2 2.0
2014-Nov-12 15:33S 33°01' W 071°36'1 0.7
2014-Nov-12 14:31S 33°00' W 071°35'0 0.0
2014-Nov-12 12:31S 33°00' W 071°35'0 0.0
2014-Nov-12 11:28S 32°60' W 071°35'0 0.0
2014-Nov-12 10:25S 32°60' W 071°35'5 2.7
2014-Nov-12 08:33S 32°55' W 071°37'1615.4
2014-Nov-12 07:32S 32°40' W 071°44'  

Dump ship's entire track history